Time;durP1;ratioP1;P1;durP2;ratioP2;P2;SDS_P1;SDS_P2;PMS_P1;PMS_P2;Temp;Humidity;BMP_temperature;BMP_pressure;BME280_temperature;BME280_humidity;BME280_pressure;Samples;Min_cycle;Max_cycle;Signal;HPM_P1;HPM_P2
2023/01/10 00:02:01;;;;;;;9.70;2.47;;;7.80;99.90;;;;;;5048252;28;20291;-33
2023/01/10 00:04:29;;;;;;;6.20;2.37;;;7.80;99.90;;;;;;5047969;28;20220;-34
2023/01/10 00:06:59;;;;;;;13.97;2.40;;;7.80;99.90;;;;;;5046728;28;20580;-33
2023/01/10 00:09:27;;;;;;;8.90;2.83;;;7.80;99.90;;;;;;5048494;28;20196;-33
2023/01/10 00:14:39;;;;;;;11.00;2.97;;;7.80;99.90;;;;;;5048255;28;20593;-34
2023/01/10 00:17:09;;;;;;;8.27;2.80;;;7.80;99.90;;;;;;5048513;28;21155;-33
2023/01/10 00:19:43;;;;;;;13.13;2.73;;;7.70;99.90;;;;;;5047043;28;20287;-33
2023/01/10 00:22:12;;;;;;;7.97;2.47;;;7.80;99.90;;;;;;5047760;28;20212;-33
2023/01/10 00:24:48;;;;;;;11.17;3.20;;;7.80;99.90;;;;;;5047971;28;20255;-34
2023/01/10 00:27:21;;;;;;;9.30;2.93;;;7.80;99.90;;;;;;5048357;28;20226;-33
2023/01/10 00:29:52;;;;;;;10.80;2.73;;;7.80;99.90;;;;;;5047884;28;20672;-34
2023/01/10 00:32:22;;;;;;;13.53;3.53;;;7.80;99.90;;;;;;5046238;28;20216;-35
2023/01/10 00:34:51;;;;;;;8.70;2.87;;;7.80;99.90;;;;;;5047779;28;20204;-33
2023/01/10 00:37:19;;;;;;;9.20;3.20;;;7.80;99.90;;;;;;5047596;28;21110;-33
2023/01/10 00:39:46;;;;;;;14.10;3.20;;;7.80;99.90;;;;;;5046117;28;20212;-34
2023/01/10 00:44:59;;;;;;;7.50;3.03;;;7.90;99.90;;;;;;5047933;28;20281;-33
2023/01/10 00:47:26;;;;;;;11.97;3.40;;;7.80;99.90;;;;;;5047902;28;20610;-33
2023/01/10 00:49:56;;;;;;;8.17;2.80;;;7.80;99.90;;;;;;5048036;28;20200;-34
2023/01/10 00:52:25;;;;;;;9.77;2.70;;;7.80;99.90;;;;;;5046049;28;20263;-33
2023/01/10 00:54:52;;;;;;;10.90;3.17;;;7.80;99.90;;;;;;5047901;28;20573;-33
2023/01/10 00:57:19;;;;;;;9.77;2.87;;;7.80;99.90;;;;;;5047794;28;20727;-33
2023/01/10 00:59:46;;;;;;;9.13;2.70;;;7.80;99.90;;;;;;5047841;28;20200;-33
2023/01/10 01:02:14;;;;;;;10.07;2.63;;;7.70;99.90;;;;;;5055344;28;20698;-34
2023/01/10 01:04:41;;;;;;;9.80;2.67;;;7.70;99.90;;;;;;5064078;28;20215;-33
2023/01/10 01:07:10;;;;;;;11.07;2.87;;;7.70;99.90;;;;;;5067567;28;20777;-33
2023/01/10 01:10:25;;;;;;;12.40;3.10;;;7.70;99.90;;;;;;5067862;28;20294;-34
2023/01/10 01:12:25;;;;;;;10.10;2.93;;;7.70;99.90;;;;;;5067319;28;20310;-33
2023/01/10 01:14:54;;;;;;;7.63;2.47;;;7.70;99.90;;;;;;5067488;28;20214;-33
2023/01/10 01:17:24;;;;;;;8.13;2.37;;;7.70;99.90;;;;;;5067533;28;20196;-33
2023/01/10 01:19:51;;;;;;;10.93;2.93;;;7.70;99.90;;;;;;5067484;28;20199;-34
2023/01/10 01:22:18;;;;;;;11.77;3.20;;;7.80;99.90;;;;;;5065988;28;20249;-34
2023/01/10 01:24:50;;;;;;;11.00;3.10;;;7.80;99.90;;;;;;5068042;28;20483;-33
2023/01/10 01:27:21;;;;;;;7.60;3.00;;;7.80;99.90;;;;;;5067156;28;20242;-33
2023/01/10 01:29:50;;;;;;;16.37;3.60;;;7.80;99.90;;;;;;5066916;28;20205;-33
2023/01/10 01:32:20;;;;;;;10.07;2.60;;;7.80;99.90;;;;;;5065809;28;20237;-34
2023/01/10 01:34:50;;;;;;;19.13;3.30;;;7.80;99.90;;;;;;5065681;28;20225;-34
2023/01/10 01:37:19;;;;;;;9.90;2.90;;;7.90;99.90;;;;;;5066956;28;20287;-33
2023/01/10 01:39:46;;;;;;;12.93;3.07;;;7.90;99.90;;;;;;5067101;28;20218;-33
2023/01/10 01:42:35;;;;;;;11.40;2.87;;;7.90;99.90;;;;;;5067119;28;20230;-33
2023/01/10 01:45:08;;;;;;;10.33;2.50;;;7.90;99.90;;;;;;5066593;28;20210;-33
2023/01/10 01:47:56;;;;;;;11.50;2.83;;;7.90;99.90;;;;;;5066857;28;20242;-34
2023/01/10 01:50:38;;;;;;;9.77;2.97;;;8.00;99.90;;;;;;5065655;28;20318;-33
2023/01/10 01:53:20;;;;;;;13.67;2.83;;;8.00;99.90;;;;;;5066481;28;20261;-33
2023/01/10 01:55:48;;;;;;;15.03;2.93;;;8.00;99.90;;;;;;5067249;28;20261;-33
2023/01/10 01:58:21;;;;;;;12.00;2.40;;;8.00;99.90;;;;;;5059762;28;20694;-33
2023/01/10 02:00:53;;;;;;;14.40;3.03;;;8.00;99.90;;;;;;5046347;28;20212;-34
2023/01/10 02:03:24;;;;;;;12.73;3.53;;;8.00;99.90;;;;;;5046040;28;20211;-33
2023/01/10 02:05:54;;;;;;;12.13;2.73;;;8.00;99.90;;;;;;5046463;28;20241;-34
2023/01/10 02:08:22;;;;;;;15.03;2.90;;;8.00;99.90;;;;;;5044927;28;20567;-33
2023/01/10 02:11:10;;;;;;;13.03;3.27;;;8.00;99.90;;;;;;5046250;28;20212;-33
2023/01/10 02:13:41;;;;;;;9.90;2.77;;;8.00;99.90;;;;;;5045084;28;20571;-33
2023/01/10 02:16:10;;;;;;;13.10;3.10;;;8.00;99.90;;;;;;5046417;28;20243;-33
2023/01/10 02:18:41;;;;;;;14.27;3.13;;;8.00;99.90;;;;;;5064426;28;20202;-33
2023/01/10 02:21:18;;;;;;;15.37;2.67;;;8.00;99.90;;;;;;5053910;28;20208;-33
2023/01/10 02:24:35;;;;;;;12.53;3.03;;;8.00;99.90;;;;;;5045971;28;20243;-34
2023/01/10 02:27:19;;;;;;;11.63;3.00;;;7.90;99.90;;;;;;5046559;28;20204;-34
2023/01/10 02:30:18;;;;;;;14.33;3.30;;;7.90;99.90;;;;;;5046433;28;20398;-33
2023/01/10 02:32:58;;;;;;;10.30;2.63;;;7.90;99.90;;;;;;5045893;28;20255;-33
2023/01/10 02:35:51;;;;;;;11.30;2.63;;;7.90;99.90;;;;;;5046233;28;20215;-33
2023/01/10 02:38:42;;;;;;;13.47;3.17;;;7.90;99.90;;;;;;5046122;28;20753;-33
2023/01/10 02:41:38;;;;;;;18.43;3.10;;;7.90;99.90;;;;;;5045959;28;20202;-33
2023/01/10 02:44:18;;;;;;;11.67;2.83;;;7.90;99.90;;;;;;5050361;28;20270;-33
2023/01/10 02:46:49;;;;;;;15.83;3.27;;;7.80;99.90;;;;;;5050146;28;20209;-33
2023/01/10 02:49:19;;;;;;;11.17;2.77;;;7.80;99.90;;;;;;5050428;28;20257;-33
2023/01/10 02:51:46;;;;;;;12.60;3.10;;;7.80;99.90;;;;;;5049639;28;20331;-33
2023/01/10 02:54:29;;;;;;;11.17;2.87;;;7.80;99.90;;;;;;5050132;28;20285;-33
2023/01/10 02:57:20;;;;;;;6.37;2.37;;;7.80;99.90;;;;;;5050361;28;20230;-33
2023/01/10 03:00:05;;;;;;;17.80;3.33;;;7.80;99.90;;;;;;5050019;28;20208;-33
2023/01/10 03:02:48;;;;;;;15.57;3.50;;;7.80;99.90;;;;;;5050120;28;20239;-34
2023/01/10 03:05:33;;;;;;;11.93;3.57;;;7.70;99.90;;;;;;5050018;28;20625;-33
2023/01/10 03:08:00;;;;;;;11.60;2.77;;;7.70;99.90;;;;;;5050245;28;20212;-33
2023/01/10 03:10:42;;;;;;;18.50;3.30;;;7.70;99.90;;;;;;5049604;28;20243;-35
2023/01/10 03:13:35;;;;;;;13.83;2.97;;;7.70;99.90;;;;;;5049560;28;20596;-33
2023/01/10 03:16:07;;;;;;;14.67;3.27;;;7.70;99.90;;;;;;5049804;28;20196;-33
2023/01/10 03:18:44;;;;;;;15.50;3.00;;;7.70;99.90;;;;;;5050546;28;20205;-34
2023/01/10 03:21:15;;;;;;;12.57;3.50;;;7.70;99.90;;;;;;5049809;28;20465;-33
2023/01/10 03:23:50;;;;;;;12.23;3.37;;;7.60;99.90;;;;;;5049665;28;20211;-33
2023/01/10 03:26:27;;;;;;;16.00;2.83;;;7.60;99.90;;;;;;5049167;28;20200;-34
2023/01/10 03:29:02;;;;;;;12.27;2.33;;;7.60;99.90;;;;;;5049685;28;20636;-33
2023/01/10 03:31:46;;;;;;;14.30;3.10;;;7.60;99.90;;;;;;5049270;28;20705;-34
2023/01/10 03:34:16;;;;;;;10.90;2.40;;;7.60;99.90;;;;;;5049516;28;20674;-33
2023/01/10 03:37:07;;;;;;;17.30;3.87;;;7.60;99.90;;;;;;5049265;28;20266;-34
2023/01/10 03:39:43;;;;;;;11.27;3.20;;;7.60;99.90;;;;;;5049061;28;20511;-34
2023/01/10 03:42:19;;;;;;;10.83;3.10;;;7.60;99.90;;;;;;5049276;28;20296;-33
2023/01/10 03:45:12;;;;;;;12.97;3.30;;;7.60;99.90;;;;;;5049058;28;20242;-33
2023/01/10 03:47:45;;;;;;;19.30;3.97;;;7.60;99.90;;;;;;5048959;28;20208;-33
2023/01/10 03:50:19;;;;;;;12.47;3.17;;;7.60;99.90;;;;;;5048948;28;21070;-33
2023/01/10 03:52:47;;;;;;;18.53;3.10;;;7.60;99.90;;;;;;5048616;28;20263;-33
2023/01/10 03:55:20;;;;;;;15.07;3.10;;;7.60;99.90;;;;;;5048929;28;20270;-33
2023/01/10 03:57:52;;;;;;;11.73;2.80;;;7.60;99.90;;;;;;5049106;28;20291;-33
2023/01/10 04:00:19;;;;;;;19.73;3.60;;;7.60;99.90;;;;;;5049009;28;20207;-33
2023/01/10 04:02:47;;;;;;;16.10;3.40;;;7.60;99.90;;;;;;5048613;28;20204;-33
2023/01/10 04:05:14;;;;;;;11.83;3.57;;;7.60;99.90;;;;;;5049036;28;20247;-34
2023/01/10 04:07:41;;;;;;;18.27;3.60;;;7.60;99.90;;;;;;5047346;28;20299;-33
2023/01/10 04:10:11;;;;;;;9.77;2.97;;;7.60;99.90;;;;;;5047179;28;20683;-33
2023/01/10 04:12:38;;;;;;;15.73;3.17;;;7.60;99.90;;;;;;5048296;28;20224;-33
2023/01/10 04:15:08;;;;;;;16.10;3.40;;;7.60;99.90;;;;;;5048402;28;20200;-33
2023/01/10 04:17:35;;;;;;;16.87;2.97;;;7.60;99.90;;;;;;5048714;28;20274;-33
2023/01/10 04:20:05;;;;;;;15.93;3.40;;;7.60;99.90;;;;;;5047125;28;20773;-34
2023/01/10 04:22:34;;;;;;;12.17;2.60;;;7.60;99.90;;;;;;5048869;28;20239;-33
2023/01/10 04:25:01;;;;;;;17.63;3.67;;;7.60;99.90;;;;;;5048762;28;20568;-34
2023/01/10 04:27:28;;;;;;;14.43;3.17;;;7.50;99.90;;;;;;5049123;28;20244;-34
2023/01/10 04:29:56;;;;;;;13.93;3.40;;;7.40;99.90;;;;;;5048657;28;20231;-33
2023/01/10 04:32:23;;;;;;;11.30;3.03;;;7.50;99.90;;;;;;5048468;28;20219;-33
2023/01/10 04:34:54;;;;;;;15.00;3.10;;;7.40;99.90;;;;;;5048460;28;20235;-34
2023/01/10 04:37:24;;;;;;;11.57;3.87;;;7.40;99.90;;;;;;5048277;28;20303;-33
2023/01/10 04:39:51;;;;;;;19.23;3.40;;;7.30;99.90;;;;;;5048514;28;21061;-33
2023/01/10 04:42:20;;;;;;;18.70;3.40;;;7.30;99.90;;;;;;5048297;28;20730;-33
2023/01/10 04:44:52;;;;;;;13.03;3.43;;;7.30;99.90;;;;;;5046805;28;20216;-33
2023/01/10 04:47:19;;;;;;;14.17;3.23;;;7.30;99.90;;;;;;5048289;28;20295;-33
2023/01/10 04:49:49;;;;;;;20.20;4.13;;;7.20;99.90;;;;;;5048158;28;20295;-33
2023/01/10 04:52:16;;;;;;;13.90;2.80;;;7.20;99.90;;;;;;5047822;28;20266;-33
2023/01/10 04:54:45;;;;;;;13.63;3.70;;;7.20;99.90;;;;;;5047980;28;20261;-33
2023/01/10 04:57:17;;;;;;;16.43;3.07;;;7.20;99.90;;;;;;5048216;28;20231;-34
2023/01/10 04:59:46;;;;;;;17.80;3.30;;;7.20;99.90;;;;;;5047688;28;20238;-33
2023/01/10 05:02:15;;;;;;;17.40;3.03;;;7.10;99.90;;;;;;5047643;28;20621;-33
2023/01/10 05:04:45;;;;;;;15.13;2.97;;;7.10;99.90;;;;;;5046266;28;20208;-34
2023/01/10 05:07:12;;;;;;;13.63;3.20;;;7.10;99.90;;;;;;5047047;28;20235;-34
2023/01/10 05:09:39;;;;;;;12.27;3.20;;;7.10;99.90;;;;;;5047026;28;20299;-33
2023/01/10 05:12:09;;;;;;;14.03;3.17;;;7.10;99.90;;;;;;5046967;28;20208;-33
2023/01/10 05:14:39;;;;;;;14.13;3.20;;;7.10;99.90;;;;;;5047002;28;20270;-33
2023/01/10 05:17:06;;;;;;;15.37;3.23;;;7.00;99.90;;;;;;5046871;28;20289;-34
2023/01/10 05:19:36;;;;;;;15.47;3.60;;;7.00;99.90;;;;;;5046757;28;20667;-33
2023/01/10 05:22:03;;;;;;;14.13;2.73;;;7.00;99.90;;;;;;5045406;28;20204;-33
2023/01/10 05:24:30;;;;;;;18.37;2.93;;;6.90;99.90;;;;;;5046767;28;20209;-34
2023/01/10 05:27:02;;;;;;;14.57;3.13;;;6.90;99.90;;;;;;5047096;28;20207;-34
2023/01/10 05:29:29;;;;;;;20.80;3.50;;;6.90;99.90;;;;;;5047526;28;20552;-33
2023/01/10 05:31:56;;;;;;;12.23;2.80;;;6.90;99.90;;;;;;5047368;28;20249;-33
2023/01/10 05:34:26;;;;;;;15.13;3.03;;;6.90;99.90;;;;;;5046738;28;20553;-33
2023/01/10 05:36:53;;;;;;;16.93;3.40;;;6.90;99.90;;;;;;5047292;28;20286;-33
2023/01/10 05:39:21;;;;;;;14.70;3.10;;;6.90;99.90;;;;;;5046980;28;20193;-33
2023/01/10 05:41:50;;;;;;;19.07;3.77;;;6.80;99.90;;;;;;5047166;28;20220;-33
2023/01/10 05:44:17;;;;;;;20.53;3.80;;;6.80;99.90;;;;;;5046831;28;20204;-34
2023/01/10 05:46:44;;;;;;;17.27;3.33;;;6.80;99.90;;;;;;5046910;28;20307;-32
2023/01/10 05:49:14;;;;;;;17.50;3.00;;;6.80;99.90;;;;;;5047004;28;20622;-33
2023/01/10 05:51:41;;;;;;;11.23;2.60;;;6.80;99.90;;;;;;5045444;28;20247;-33
2023/01/10 05:54:08;;;;;;;13.53;3.03;;;6.80;99.90;;;;;;5045726;28;20224;-33
2023/01/10 05:56:38;;;;;;;18.47;2.97;;;6.80;99.90;;;;;;5046635;28;20212;-34
2023/01/10 05:59:05;;;;;;;22.00;4.00;;;6.70;99.90;;;;;;5045224;28;20574;-33
2023/01/10 06:01:49;;;;;;;17.37;3.27;;;6.80;99.90;;;;;;5031373;28;20203;-34
2023/01/10 06:04:19;;;;;;;13.80;2.83;;;6.80;99.90;;;;;;5045988;28;20216;-33
2023/01/10 06:06:46;;;;;;;15.07;3.20;;;6.70;99.90;;;;;;5044918;28;20667;-34
2023/01/10 06:09:17;;;;;;;13.43;2.90;;;6.70;99.90;;;;;;5028944;28;20196;-34
2023/01/10 06:11:47;;;;;;;14.07;3.37;;;6.80;99.90;;;;;;5046129;28;20750;-33
2023/01/10 06:14:18;;;;;;;14.43;2.83;;;6.80;99.90;;;;;;5044841;28;20747;-33
2023/01/10 06:16:46;;;;;;;20.40;3.70;;;6.70;99.90;;;;;;5045102;28;20196;-33
2023/01/10 06:19:13;;;;;;;20.17;3.90;;;6.70;99.90;;;;;;5046355;28;20586;-34
2023/01/10 06:21:45;;;;;;;14.93;3.27;;;6.70;99.90;;;;;;5046366;28;20232;-33
2023/01/10 06:24:12;;;;;;;14.87;2.90;;;6.70;99.90;;;;;;5046121;28;20201;-33
2023/01/10 06:26:44;;;;;;;18.20;3.27;;;6.70;99.90;;;;;;5044334;28;20235;-34
2023/01/10 06:29:11;;;;;;;11.87;3.27;;;6.60;99.90;;;;;;5045063;28;20686;-33
2023/01/10 06:31:38;;;;;;;14.90;3.47;;;6.60;99.90;;;;;;5046228;28;20239;-33
2023/01/10 06:34:07;;;;;;;13.40;2.70;;;6.60;99.90;;;;;;5045800;28;20220;-32
2023/01/10 06:36:37;;;;;;;13.87;3.30;;;6.60;99.90;;;;;;5046166;28;20197;-33
2023/01/10 06:39:04;;;;;;;14.13;2.60;;;6.50;99.90;;;;;;5046199;28;20201;-33
2023/01/10 06:41:34;;;;;;;19.47;3.13;;;6.50;99.90;;;;;;5046519;28;20192;-33
2023/01/10 06:44:01;;;;;;;14.47;3.10;;;6.50;99.90;;;;;;5046314;28;20274;-33
2023/01/10 06:46:31;;;;;;;12.53;3.07;;;6.50;99.90;;;;;;5044193;28;20690;-33
2023/01/10 06:49:03;;;;;;;19.13;3.83;;;6.50;99.90;;;;;;5046011;28;20773;-33
2023/01/10 06:51:30;;;;;;;18.00;3.10;;;6.50;99.90;;;;;;5045622;28;20716;-32
2023/01/10 06:54:02;;;;;;;12.63;3.00;;;6.50;99.90;;;;;;5046104;28;20465;-34
2023/01/10 06:56:29;;;;;;;16.53;3.40;;;6.40;99.90;;;;;;5044201;28;20228;-34
2023/01/10 06:58:59;;;;;;;15.87;3.13;;;6.40;99.90;;;;;;5046103;28;20258;-34
2023/01/10 07:01:27;;;;;;;10.90;2.83;;;6.40;99.90;;;;;;5044552;28;20608;-33
2023/01/10 07:03:54;;;;;;;10.03;3.10;;;6.40;99.90;;;;;;5044160;28;20204;-33
2023/01/10 07:06:21;;;;;;;17.93;3.30;;;6.50;99.90;;;;;;5045782;28;20611;-34
2023/01/10 07:08:53;;;;;;;18.37;3.47;;;6.40;99.90;;;;;;5045792;28;20231;-33
2023/01/10 07:11:20;;;;;;;14.20;3.20;;;6.40;99.90;;;;;;5045856;28;20232;-34
2023/01/10 07:13:48;;;;;;;11.97;3.00;;;6.40;99.90;;;;;;5045960;28;20247;-34
2023/01/10 07:16:15;;;;;;;13.20;2.90;;;6.40;99.90;;;;;;5043872;28;20279;-34
2023/01/10 07:18:43;;;;;;;19.93;3.20;;;6.40;99.90;;;;;;5045659;28;20727;-34
2023/01/10 07:21:11;;;;;;;12.10;3.23;;;6.40;99.90;;;;;;5046340;28;20294;-33
2023/01/10 07:23:39;;;;;;;17.77;4.17;;;6.30;99.90;;;;;;5044364;28;20200;-33
2023/01/10 07:26:08;;;;;;;14.83;3.30;;;6.40;99.90;;;;;;5045868;28;20200;-34
2023/01/10 07:28:43;;;;;;;19.20;3.40;;;6.40;99.90;;;;;;5047631;28;20630;-34
2023/01/10 07:31:12;;;;;;;13.17;3.53;;;6.40;99.90;;;;;;5047622;28;20200;-33
2023/01/10 07:33:39;;;;;;;18.97;3.50;;;6.40;99.90;;;;;;5047585;28;20232;-33
2023/01/10 07:36:07;;;;;;;19.33;3.33;;;6.30;99.90;;;;;;5049341;28;20271;-33
2023/01/10 07:38:34;;;;;;;15.37;3.37;;;6.40;99.90;;;;;;5049141;28;20192;-33
2023/01/10 07:41:04;;;;;;;20.27;3.70;;;6.30;99.90;;;;;;5049558;28;20207;-34
2023/01/10 07:43:32;;;;;;;16.70;3.67;;;6.30;99.90;;;;;;5047869;28;20208;-34
2023/01/10 07:46:01;;;;;;;18.27;3.37;;;6.30;99.90;;;;;;5049224;28;20310;-34
2023/01/10 07:48:28;;;;;;;17.07;3.53;;;6.40;99.90;;;;;;5048876;28;20295;-33
2023/01/10 07:50:58;;;;;;;14.13;2.93;;;6.40;99.90;;;;;;5048646;28;20246;-33
2023/01/10 07:53:28;;;;;;;23.70;3.67;;;6.40;99.90;;;;;;5048751;28;20562;-34
2023/01/10 07:56:03;;;;;;;20.73;4.30;;;6.40;99.90;;;;;;5048732;28;20576;-33
2023/01/10 07:58:32;;;;;;;14.50;3.03;;;6.40;99.90;;;;;;5048841;28;20212;-33
2023/01/10 08:01:01;;;;;;;18.53;3.87;;;6.40;99.90;;;;;;5048437;28;20218;-34
2023/01/10 08:03:29;;;;;;;11.77;3.07;;;6.50;99.90;;;;;;5048942;28;20200;-33
2023/01/10 08:06:06;;;;;;;16.20;3.60;;;6.50;99.90;;;;;;5048183;28;20728;-34
2023/01/10 08:08:36;;;;;;;14.97;3.30;;;6.50;99.90;;;;;;5048577;28;20204;-34
2023/01/10 08:11:04;;;;;;;20.73;3.63;;;6.50;99.90;;;;;;5048532;28;20207;-33
2023/01/10 08:13:31;;;;;;;13.13;3.47;;;6.50;99.90;;;;;;5048644;28;20226;-33
2023/01/10 08:16:02;;;;;;;17.33;3.60;;;6.50;99.90;;;;;;5046905;28;20192;-33
2023/01/10 08:18:30;;;;;;;19.50;3.27;;;6.60;99.90;;;;;;5048071;28;20192;-33
2023/01/10 08:20:59;;;;;;;10.93;3.03;;;6.60;99.90;;;;;;5048129;28;20768;-33
2023/01/10 08:23:31;;;;;;;13.93;3.43;;;6.60;99.90;;;;;;5030516;28;20216;-33
2023/01/10 08:26:00;;;;;;;15.00;3.40;;;6.70;99.90;;;;;;5048406;28;20291;-33
2023/01/10 08:28:30;;;;;;;15.97;3.47;;;6.60;99.90;;;;;;5048592;28;20230;-33
2023/01/10 08:30:57;;;;;;;19.43;3.83;;;6.70;99.90;;;;;;5046601;28;20291;-33
2023/01/10 08:33:26;;;;;;;15.50;4.20;;;6.70;99.90;;;;;;5048335;28;20262;-33
2023/01/10 08:35:53;;;;;;;39.07;7.47;;;6.80;99.90;;;;;;5046794;28;20200;-33
2023/01/10 08:38:20;;;;;;;37.40;6.47;;;6.80;99.90;;;;;;5048628;28;20258;-32
2023/01/10 08:40:50;;;;;;;31.37;6.63;;;6.80;99.90;;;;;;5047263;28;20220;-33
2023/01/10 08:43:17;;;;;;;35.60;6.03;;;6.80;99.90;;;;;;5047728;28;20295;-34
2023/01/10 08:45:47;;;;;;;32.80;6.03;;;6.90;99.90;;;;;;5047852;28;20584;-34
2023/01/10 08:48:16;;;;;;;30.53;5.33;;;6.90;99.90;;;;;;5048254;28;20282;-33
2023/01/10 08:50:46;;;;;;;27.03;6.00;;;6.90;99.90;;;;;;5048042;28;20200;-33
2023/01/10 08:53:13;;;;;;;22.27;4.10;;;6.90;99.90;;;;;;5046631;28;20236;-33
2023/01/10 08:55:40;;;;;;;13.10;3.80;;;7.00;99.90;;;;;;5047711;28;20227;-32
2023/01/10 08:58:10;;;;;;;12.40;3.20;;;7.00;99.90;;;;;;5047933;28;20306;-33
2023/01/10 09:00:40;;;;;;;15.00;3.97;;;7.10;99.90;;;;;;5047508;28;20295;-33
2023/01/10 09:03:10;;;;;;;15.87;3.70;;;7.10;99.90;;;;;;5047898;28;20741;-34
2023/01/10 09:05:40;;;;;;;13.63;3.57;;;7.10;99.90;;;;;;5047760;28;20326;-33
2023/01/10 09:08:08;;;;;;;16.90;3.80;;;7.10;99.90;;;;;;5048217;28;20705;-33
2023/01/10 09:10:35;;;;;;;16.33;3.63;;;7.10;99.90;;;;;;5047457;28;20200;-34
2023/01/10 09:13:05;;;;;;;19.10;3.97;;;7.10;99.90;;;;;;5045774;28;20258;-33
2023/01/10 09:15:34;;;;;;;15.37;4.03;;;7.20;99.90;;;;;;5046424;28;20199;-34
2023/01/10 09:18:05;;;;;;;17.80;3.40;;;7.30;99.90;;;;;;5046501;28;20200;-34
2023/01/10 09:20:34;;;;;;;15.53;3.40;;;7.30;99.90;;;;;;5047468;28;20188;-32
2023/01/10 09:23:16;;;;;;;10.17;2.90;;;7.30;99.90;;;;;;5045873;28;20272;-33
2023/01/10 09:25:47;;;;;;;14.50;3.73;;;7.40;99.90;;;;;;5047166;28;20196;-33
2023/01/10 09:28:15;;;;;;;13.90;3.47;;;7.40;99.90;;;;;;5046845;28;20200;-32
2023/01/10 09:30:43;;;;;;;15.07;3.63;;;7.40;99.90;;;;;;5045057;28;20697;-32
2023/01/10 09:33:11;;;;;;;11.07;3.37;;;7.50;99.90;;;;;;5047096;28;20287;-33
2023/01/10 09:35:39;;;;;;;15.73;3.70;;;7.50;99.90;;;;;;5045124;28;20211;-33
2023/01/10 09:38:10;;;;;;;12.77;3.23;;;7.50;99.90;;;;;;5046599;28;20207;-33
2023/01/10 09:40:41;;;;;;;16.13;3.60;;;7.60;99.90;;;;;;5046464;28;20231;-33
2023/01/10 09:43:27;;;;;;;17.30;3.67;;;7.60;99.90;;;;;;5046390;28;20204;-33
2023/01/10 09:46:11;;;;;;;12.40;3.30;;;7.70;99.90;;;;;;5046616;28;20238;-33
2023/01/10 09:48:48;;;;;;;17.40;3.73;;;7.70;99.90;;;;;;5045254;28;20216;-34
2023/01/10 09:51:38;;;;;;;17.53;4.47;;;7.70;99.90;;;;;;5046617;28;20296;-33
2023/01/10 09:54:22;;;;;;;21.57;4.63;;;7.80;99.90;;;;;;5046613;28;20235;-33
2023/01/10 09:56:52;;;;;;;20.00;4.63;;;7.80;99.90;;;;;;5044944;28;20626;-33
2023/01/10 09:59:24;;;;;;;20.93;4.33;;;7.80;99.90;;;;;;5046652;28;20216;-33
2023/01/10 10:02:15;;;;;;;22.33;3.90;;;7.80;99.90;;;;;;5046307;28;20956;-33
2023/01/10 10:05:05;;;;;;;18.73;4.80;;;7.90;99.90;;;;;;5046773;28;20306;-33
2023/01/10 10:07:35;;;;;;;21.73;4.17;;;7.90;99.90;;;;;;5044537;28;20691;-33
2023/01/10 10:10:11;;;;;;;27.47;5.60;;;8.00;99.90;;;;;;5046380;28;20207;-33
2023/01/10 10:13:04;;;;;;;21.60;4.50;;;8.00;99.90;;;;;;5046095;28;20200;-32
2023/01/10 10:16:26;;;;;;;28.50;4.70;;;8.10;99.90;;;;;;5046165;28;20235;-32
2023/01/10 10:19:03;;;;;;;30.13;4.93;;;8.10;99.90;;;;;;5045327;28;20632;-32
2023/01/10 10:21:52;;;;;;;21.40;4.70;;;8.20;99.90;;;;;;5046613;28;20199;-32
2023/01/10 10:24:39;;;;;;;22.30;5.10;;;8.20;99.90;;;;;;5044680;28;20200;-32
2023/01/10 10:27:22;;;;;;;26.27;4.97;;;8.30;99.90;;;;;;5046250;28;20208;-33
2023/01/10 10:30:20;;;;;;;25.30;4.87;;;8.30;99.90;;;;;;5046431;28;20655;-33
2023/01/10 10:33:44;;;;;;;22.63;4.60;;;8.40;99.90;;;;;;5046022;28;20226;-32
2023/01/10 10:36:27;;;;;;;18.87;4.07;;;8.40;99.90;;;;;;5043167;28;20196;-33
2023/01/10 10:39:00;;;;;;;26.33;5.27;;;8.50;99.90;;;;;;5043507;28;20234;-32
2023/01/10 10:41:35;;;;;;;22.67;4.20;;;8.50;99.90;;;;;;5045239;28;20555;-32
2023/01/10 10:44:16;;;;;;;19.43;4.00;;;8.60;99.90;;;;;;5045942;28;20262;-31
2023/01/10 10:46:43;;;;;;;18.53;4.60;;;8.60;99.90;;;;;;5046091;28;20204;-32
2023/01/10 10:49:33;;;;;;;19.87;4.60;;;8.70;99.90;;;;;;5044747;28;20216;-33
2023/01/10 10:52:07;;;;;;;19.73;4.13;;;8.70;99.90;;;;;;5045676;28;20673;-32
2023/01/10 10:54:35;;;;;;;19.20;3.87;;;8.70;99.90;;;;;;5046125;28;20223;-33
2023/01/10 10:57:03;;;;;;;20.57;4.07;;;8.80;99.90;;;;;;5044236;28;20204;-32
2023/01/10 10:59:32;;;;;;;23.13;4.40;;;8.80;99.90;;;;;;5045758;28;20740;-34
2023/01/10 11:02:02;;;;;;;17.40;4.30;;;8.90;99.90;;;;;;5044231;28;20589;-33
2023/01/10 11:04:30;;;;;;;17.70;3.80;;;8.90;99.90;;;;;;5047553;28;20208;-33
2023/01/10 11:06:58;;;;;;;18.93;4.37;;;9.00;99.90;;;;;;5049383;28;20252;-32
2023/01/10 11:11:58;;;;;;;21.77;4.20;;;9.10;99.90;;;;;;5049880;28;20204;-33
2023/01/10 11:14:57;;;;;;;31.50;5.27;;;9.10;99.90;;;;;;5048216;28;20316;-32
2023/01/10 11:17:39;;;;;;;23.73;5.13;;;9.10;99.90;;;;;;5044160;28;20232;-32
2023/01/10 11:20:14;;;;;;;23.53;4.30;;;9.10;99.90;;;;;;5049914;28;20222;-32
2023/01/10 11:22:52;;;;;;;18.77;4.30;;;9.20;99.90;;;;;;5049519;28;20226;-34
2023/01/10 11:25:22;;;;;;;17.40;3.90;;;9.20;99.90;;;;;;5049753;28;20207;-35
2023/01/10 11:27:54;;;;;;;19.80;4.10;;;9.30;99.90;;;;;;5049562;28;20208;-34
2023/01/10 11:30:29;;;;;;;18.97;4.73;;;9.20;99.90;;;;;;5049085;28;20295;-31
2023/01/10 11:33:06;;;;;;;22.27;5.83;;;9.30;99.90;;;;;;5047696;28;20207;-31
2023/01/10 11:35:40;;;;;;;19.47;4.87;;;9.30;99.90;;;;;;5049390;28;20250;-31
2023/01/10 11:38:16;;;;;;;22.03;4.90;;;9.40;99.90;;;;;;5049251;28;20633;-31
2023/01/10 11:40:54;;;;;;;18.57;4.80;;;9.40;99.90;;;;;;5049103;28;20750;-31
2023/01/10 11:43:36;;;;;;;28.43;5.00;;;9.40;99.90;;;;;;5049632;28;20269;-31
2023/01/10 11:46:15;;;;;;;23.33;4.80;;;9.40;99.90;;;;;;5048762;28;20261;-32
2023/01/10 11:49:05;;;;;;;15.73;3.80;;;9.40;99.90;;;;;;5048850;28;20192;-31
2023/01/10 11:51:44;;;;;;;17.30;3.47;;;9.40;99.90;;;;;;5048168;28;20228;-31
2023/01/10 11:54:34;;;;;;;22.00;4.60;;;9.40;99.90;;;;;;5047173;28;20281;-32
2023/01/10 11:57:13;;;;;;;19.10;4.50;;;9.50;99.90;;;;;;5048595;28;21106;-32
2023/01/10 11:59:55;;;;;;;18.57;4.20;;;9.50;99.90;;;;;;5048571;28;20745;-31
2023/01/10 12:02:23;;;;;;;17.87;4.63;;;9.50;99.90;;;;;;5048992;28;20686;-32
2023/01/10 12:04:53;;;;;;;18.30;3.83;;;9.40;99.90;;;;;;5048322;28;20220;-32
2023/01/10 12:07:21;;;;;;;21.03;4.30;;;9.40;99.90;;;;;;5048801;28;20242;-31
2023/01/10 12:10:01;;;;;;;18.57;4.10;;;9.50;99.90;;;;;;5048297;28;20207;-32
2023/01/10 12:12:33;;;;;;;26.80;4.70;;;9.50;99.90;;;;;;5048735;28;20196;-31
2023/01/10 12:15:35;;;;;;;19.70;4.57;;;9.50;99.90;;;;;;5048276;28;20220;-32
2023/01/10 12:18:05;;;;;;;27.73;4.93;;;9.60;99.90;;;;;;5047042;28;20200;-32
2023/01/10 12:20:46;;;;;;;20.43;4.10;;;9.60;99.90;;;;;;5048913;28;20206;-31
2023/01/10 12:23:19;;;;;;;21.17;4.20;;;9.60;99.90;;;;;;5048523;28;20261;-32
2023/01/10 12:25:49;;;;;;;21.93;4.60;;;9.60;99.90;;;;;;5047913;28;20740;-31
2023/01/10 12:28:29;;;;;;;23.30;4.30;;;9.70;99.90;;;;;;5047858;28;20236;-32
2023/01/10 12:30:59;;;;;;;29.33;4.70;;;9.70;99.90;;;;;;5047930;28;20216;-31
2023/01/10 12:33:39;;;;;;;16.63;4.13;;;9.80;99.90;;;;;;5048307;28;20230;-32
2023/01/10 12:36:43;;;;;;;20.20;4.90;;;9.80;99.90;;;;;;5048240;28;20255;-32
2023/01/10 12:39:25;;;;;;;23.20;4.57;;;9.80;99.90;;;;;;5046654;28;20275;-32
2023/01/10 12:45:20;;;;;;;19.73;4.27;;;9.80;99.90;;;;;;5048173;28;20204;-32
2023/01/10 12:48:04;;;;;;;22.10;4.17;;;9.80;99.90;;;;;;5047691;28;20626;-32
2023/01/10 12:50:40;;;;;;;24.73;4.53;;;9.90;99.90;;;;;;5047679;28;20227;-31
2023/01/10 12:53:25;;;;;;;18.77;4.03;;;9.90;99.90;;;;;;5047765;28;20309;-31
2023/01/10 12:55:56;;;;;;;17.87;3.73;;;9.90;99.90;;;;;;5046467;28;20227;-32
2023/01/10 12:58:37;;;;;;;20.57;4.93;;;9.90;99.90;;;;;;5048061;28;20231;-32
2023/01/10 13:01:16;;;;;;;22.20;4.67;;;10.00;99.90;;;;;;5047724;28;20254;-32
2023/01/10 13:03:52;;;;;;;19.70;4.33;;;10.00;99.90;;;;;;5048250;28;20860;-31
2023/01/10 13:06:42;;;;;;;20.10;4.40;;;10.00;99.90;;;;;;5047238;28;20216;-32
2023/01/10 13:09:21;;;;;;;17.30;4.30;;;10.00;99.90;;;;;;5047351;28;20589;-32
2023/01/10 13:12:07;;;;;;;19.83;3.70;;;10.00;99.90;;;;;;5047651;28;20286;-30
2023/01/10 13:14:45;;;;;;;21.50;4.00;;;10.00;99.90;;;;;;5045577;28;20228;-30
2023/01/10 13:17:27;;;;;;;22.53;4.13;;;10.00;99.90;;;;;;5047146;28;20241;-29
2023/01/10 13:20:23;;;;;;;19.80;3.97;;;10.10;99.90;;;;;;5047639;28;20192;-30
2023/01/10 13:22:59;;;;;;;19.43;4.60;;;10.00;99.90;;;;;;5047453;28;20196;-30
2023/01/10 13:25:38;;;;;;;19.50;4.23;;;10.00;99.90;;;;;;5045240;28;20295;-32
2023/01/10 13:28:13;;;;;;;22.40;4.30;;;10.00;99.90;;;;;;5047425;28;20291;-32
2023/01/10 13:30:41;;;;;;;17.17;3.77;;;10.00;99.90;;;;;;5047573;28;20261;-32
2023/01/10 13:33:48;;;;;;;17.17;3.97;;;10.00;99.90;;;;;;5045528;28;20291;-30